sensor_id;sensor_type;location;lat;lon;timestamp;P1;durP1;ratioP1;P2;durP2;ratioP2
47519;SDS011;33252;48.122;11.538;2023-04-09T00:01:59;14.50;;;9.88;;
47519;SDS011;33252;48.122;11.538;2023-04-09T00:04:25;11.63;;;8.07;;
47519;SDS011;33252;48.122;11.538;2023-04-09T00:06:51;14.57;;;8.65;;
47519;SDS011;33252;48.122;11.538;2023-04-09T00:09:16;10.38;;;7.80;;
47519;SDS011;33252;48.122;11.538;2023-04-09T00:11:42;12.73;;;8.35;;
47519;SDS011;33252;48.122;11.538;2023-04-09T00:14:07;14.95;;;8.38;;
47519;SDS011;33252;48.122;11.538;2023-04-09T00:16:33;11.85;;;8.43;;
47519;SDS011;33252;48.122;11.538;2023-04-09T00:18:59;12.95;;;9.15;;
47519;SDS011;33252;48.122;11.538;2023-04-09T00:21:25;11.38;;;8.07;;
47519;SDS011;33252;48.122;11.538;2023-04-09T00:23:51;11.77;;;8.85;;
47519;SDS011;33252;48.122;11.538;2023-04-09T00:26:16;12.15;;;9.05;;
47519;SDS011;33252;48.122;11.538;2023-04-09T00:28:42;12.63;;;8.73;;
47519;SDS011;33252;48.122;11.538;2023-04-09T00:31:08;13.07;;;8.60;;
47519;SDS011;33252;48.122;11.538;2023-04-09T00:33:34;12.93;;;8.82;;
47519;SDS011;33252;48.122;11.538;2023-04-09T00:36:00;17.05;;;9.57;;
47519;SDS011;33252;48.122;11.538;2023-04-09T00:38:26;11.07;;;8.82;;
47519;SDS011;33252;48.122;11.538;2023-04-09T00:40:51;12.95;;;8.40;;
47519;SDS011;33252;48.122;11.538;2023-04-09T00:43:17;14.27;;;8.35;;
47519;SDS011;33252;48.122;11.538;2023-04-09T00:45:43;16.33;;;11.80;;
47519;SDS011;33252;48.122;11.538;2023-04-09T00:48:09;18.58;;;8.70;;
47519;SDS011;33252;48.122;11.538;2023-04-09T00:50:37;10.63;;;8.52;;
47519;SDS011;33252;48.122;11.538;2023-04-09T00:53:03;11.63;;;7.90;;
47519;SDS011;33252;48.122;11.538;2023-04-09T00:55:29;12.10;;;8.82;;
47519;SDS011;33252;48.122;11.538;2023-04-09T00:57:55;14.55;;;8.55;;
47519;SDS011;33252;48.122;11.538;2023-04-09T01:00:22;12.32;;;8.65;;
47519;SDS011;33252;48.122;11.538;2023-04-09T01:02:47;12.15;;;8.15;;
47519;SDS011;33252;48.122;11.538;2023-04-09T01:05:16;11.13;;;8.27;;
47519;SDS011;33252;48.122;11.538;2023-04-09T01:10:39;12.02;;;9.25;;
47519;SDS011;33252;48.122;11.538;2023-04-09T01:13:12;13.07;;;9.07;;
47519;SDS011;33252;48.122;11.538;2023-04-09T01:15:54;13.20;;;9.07;;
47519;SDS011;33252;48.122;11.538;2023-04-09T01:18:39;12.93;;;8.73;;
47519;SDS011;33252;48.122;11.538;2023-04-09T01:21:19;12.40;;;8.80;;
47519;SDS011;33252;48.122;11.538;2023-04-09T01:27:33;14.00;;;8.77;;
47519;SDS011;33252;48.122;11.538;2023-04-09T01:29:37;11.23;;;9.45;;
47519;SDS011;33252;48.122;11.538;2023-04-09T01:32:06;14.27;;;9.52;;
47519;SDS011;33252;48.122;11.538;2023-04-09T01:34:33;12.07;;;8.30;;
47519;SDS011;33252;48.122;11.538;2023-04-09T01:37:01;12.90;;;9.15;;
47519;SDS011;33252;48.122;11.538;2023-04-09T01:39:28;13.90;;;8.93;;
47519;SDS011;33252;48.122;11.538;2023-04-09T01:41:54;15.85;;;9.98;;
47519;SDS011;33252;48.122;11.538;2023-04-09T01:44:22;13.40;;;8.70;;
47519;SDS011;33252;48.122;11.538;2023-04-09T01:46:50;12.68;;;8.45;;
47519;SDS011;33252;48.122;11.538;2023-04-09T01:49:16;13.80;;;9.10;;
47519;SDS011;33252;48.122;11.538;2023-04-09T01:51:42;14.40;;;9.18;;
47519;SDS011;33252;48.122;11.538;2023-04-09T01:54:09;14.48;;;9.13;;
47519;SDS011;33252;48.122;11.538;2023-04-09T01:59:10;13.52;;;9.07;;
47519;SDS011;33252;48.122;11.538;2023-04-09T02:04:16;17.20;;;9.15;;
47519;SDS011;33252;48.122;11.538;2023-04-09T02:09:28;15.05;;;9.90;;
47519;SDS011;33252;48.122;11.538;2023-04-09T02:11:57;13.43;;;9.40;;
47519;SDS011;33252;48.122;11.538;2023-04-09T02:14:23;12.70;;;8.80;;
47519;SDS011;33252;48.122;11.538;2023-04-09T02:16:51;14.52;;;9.75;;
47519;SDS011;33252;48.122;11.538;2023-04-09T02:19:17;14.95;;;9.60;;
47519;SDS011;33252;48.122;11.538;2023-04-09T02:21:43;14.27;;;8.85;;
47519;SDS011;33252;48.122;11.538;2023-04-09T02:24:08;12.85;;;9.30;;
47519;SDS011;33252;48.122;11.538;2023-04-09T02:26:34;16.10;;;10.32;;
47519;SDS011;33252;48.122;11.538;2023-04-09T02:28:59;14.13;;;9.90;;
47519;SDS011;33252;48.122;11.538;2023-04-09T02:31:25;14.55;;;9.60;;
47519;SDS011;33252;48.122;11.538;2023-04-09T02:33:51;12.05;;;8.73;;
47519;SDS011;33252;48.122;11.538;2023-04-09T02:36:18;13.38;;;8.93;;
47519;SDS011;33252;48.122;11.538;2023-04-09T02:38:43;13.40;;;9.65;;
47519;SDS011;33252;48.122;11.538;2023-04-09T02:41:09;14.27;;;9.75;;
47519;SDS011;33252;48.122;11.538;2023-04-09T02:43:35;14.23;;;9.25;;
47519;SDS011;33252;48.122;11.538;2023-04-09T02:46:01;16.17;;;9.32;;
47519;SDS011;33252;48.122;11.538;2023-04-09T02:48:27;12.13;;;8.63;;
47519;SDS011;33252;48.122;11.538;2023-04-09T02:50:52;14.70;;;9.98;;
47519;SDS011;33252;48.122;11.538;2023-04-09T02:53:18;12.30;;;8.73;;
47519;SDS011;33252;48.122;11.538;2023-04-09T02:55:45;15.73;;;10.23;;
47519;SDS011;33252;48.122;11.538;2023-04-09T02:58:11;15.65;;;10.45;;
47519;SDS011;33252;48.122;11.538;2023-04-09T03:00:37;14.05;;;9.70;;
47519;SDS011;33252;48.122;11.538;2023-04-09T03:03:02;14.27;;;9.85;;
47519;SDS011;33252;48.122;11.538;2023-04-09T03:05:28;14.77;;;9.63;;
47519;SDS011;33252;48.122;11.538;2023-04-09T03:07:54;15.93;;;9.75;;
47519;SDS011;33252;48.122;11.538;2023-04-09T03:10:20;13.65;;;9.35;;
47519;SDS011;33252;48.122;11.538;2023-04-09T03:12:46;14.00;;;9.82;;
47519;SDS011;33252;48.122;11.538;2023-04-09T03:15:12;14.50;;;9.65;;
47519;SDS011;33252;48.122;11.538;2023-04-09T03:17:37;15.35;;;10.13;;
47519;SDS011;33252;48.122;11.538;2023-04-09T03:20:04;14.90;;;10.57;;
47519;SDS011;33252;48.122;11.538;2023-04-09T03:22:34;14.93;;;11.48;;
47519;SDS011;33252;48.122;11.538;2023-04-09T03:25:04;15.63;;;9.75;;
47519;SDS011;33252;48.122;11.538;2023-04-09T03:27:31;17.92;;;9.93;;
47519;SDS011;33252;48.122;11.538;2023-04-09T03:29:56;15.80;;;10.98;;
47519;SDS011;33252;48.122;11.538;2023-04-09T03:32:22;16.52;;;10.80;;
47519;SDS011;33252;48.122;11.538;2023-04-09T03:34:48;18.98;;;11.18;;
47519;SDS011;33252;48.122;11.538;2023-04-09T03:37:13;16.17;;;10.80;;
47519;SDS011;33252;48.122;11.538;2023-04-09T03:39:39;14.50;;;10.70;;
47519;SDS011;33252;48.122;11.538;2023-04-09T03:42:05;16.92;;;10.80;;
47519;SDS011;33252;48.122;11.538;2023-04-09T03:44:31;16.80;;;10.38;;
47519;SDS011;33252;48.122;11.538;2023-04-09T03:46:57;14.07;;;10.82;;
47519;SDS011;33252;48.122;11.538;2023-04-09T03:49:22;16.08;;;10.07;;
47519;SDS011;33252;48.122;11.538;2023-04-09T03:51:49;15.10;;;9.82;;
47519;SDS011;33252;48.122;11.538;2023-04-09T03:54:14;13.88;;;10.20;;
47519;SDS011;33252;48.122;11.538;2023-04-09T03:56:40;16.27;;;11.50;;
47519;SDS011;33252;48.122;11.538;2023-04-09T03:59:06;15.32;;;10.48;;
47519;SDS011;33252;48.122;11.538;2023-04-09T04:01:32;17.05;;;10.75;;
47519;SDS011;33252;48.122;11.538;2023-04-09T04:03:58;17.17;;;10.55;;
47519;SDS011;33252;48.122;11.538;2023-04-09T04:06:24;17.58;;;10.93;;
47519;SDS011;33252;48.122;11.538;2023-04-09T04:08:50;17.58;;;11.55;;
47519;SDS011;33252;48.122;11.538;2023-04-09T04:11:16;15.82;;;11.05;;
47519;SDS011;33252;48.122;11.538;2023-04-09T04:13:42;15.93;;;10.55;;
47519;SDS011;33252;48.122;11.538;2023-04-09T04:16:08;15.80;;;10.57;;
47519;SDS011;33252;48.122;11.538;2023-04-09T04:18:34;14.88;;;10.85;;
47519;SDS011;33252;48.122;11.538;2023-04-09T04:21:01;16.65;;;11.35;;
47519;SDS011;33252;48.122;11.538;2023-04-09T04:23:26;16.92;;;10.98;;
47519;SDS011;33252;48.122;11.538;2023-04-09T04:25:52;22.02;;;12.20;;
47519;SDS011;33252;48.122;11.538;2023-04-09T04:28:18;16.33;;;10.93;;
47519;SDS011;33252;48.122;11.538;2023-04-09T04:30:43;16.58;;;10.18;;
47519;SDS011;33252;48.122;11.538;2023-04-09T04:33:09;18.95;;;11.27;;
47519;SDS011;33252;48.122;11.538;2023-04-09T04:35:35;18.77;;;11.95;;
47519;SDS011;33252;48.122;11.538;2023-04-09T04:38:00;15.93;;;10.90;;
47519;SDS011;33252;48.122;11.538;2023-04-09T04:40:26;19.55;;;13.40;;
47519;SDS011;33252;48.122;11.538;2023-04-09T04:42:52;19.77;;;12.00;;
47519;SDS011;33252;48.122;11.538;2023-04-09T04:45:17;20.80;;;13.23;;
47519;SDS011;33252;48.122;11.538;2023-04-09T04:47:43;20.95;;;12.57;;
47519;SDS011;33252;48.122;11.538;2023-04-09T04:50:09;20.50;;;13.27;;
47519;SDS011;33252;48.122;11.538;2023-04-09T04:52:35;19.80;;;12.15;;
47519;SDS011;33252;48.122;11.538;2023-04-09T04:55:01;21.45;;;12.88;;
47519;SDS011;33252;48.122;11.538;2023-04-09T04:57:26;17.55;;;11.95;;
47519;SDS011;33252;48.122;11.538;2023-04-09T04:59:52;17.75;;;11.63;;
47519;SDS011;33252;48.122;11.538;2023-04-09T05:02:18;20.55;;;12.27;;
47519;SDS011;33252;48.122;11.538;2023-04-09T05:04:43;20.27;;;12.63;;
47519;SDS011;33252;48.122;11.538;2023-04-09T05:07:09;20.45;;;12.88;;
47519;SDS011;33252;48.122;11.538;2023-04-09T05:09:34;20.50;;;13.30;;
47519;SDS011;33252;48.122;11.538;2023-04-09T05:12:00;20.35;;;12.60;;
47519;SDS011;33252;48.122;11.538;2023-04-09T05:14:26;19.30;;;12.70;;
47519;SDS011;33252;48.122;11.538;2023-04-09T05:16:52;20.38;;;13.23;;
47519;SDS011;33252;48.122;11.538;2023-04-09T05:19:17;22.60;;;14.57;;
47519;SDS011;33252;48.122;11.538;2023-04-09T05:21:43;20.23;;;12.85;;
47519;SDS011;33252;48.122;11.538;2023-04-09T05:24:09;21.25;;;13.15;;
47519;SDS011;33252;48.122;11.538;2023-04-09T05:26:35;20.10;;;13.18;;
47519;SDS011;33252;48.122;11.538;2023-04-09T05:29:00;20.73;;;13.05;;
47519;SDS011;33252;48.122;11.538;2023-04-09T05:31:26;22.00;;;13.38;;
47519;SDS011;33252;48.122;11.538;2023-04-09T05:33:52;23.55;;;14.00;;
47519;SDS011;33252;48.122;11.538;2023-04-09T05:36:18;22.35;;;13.95;;
47519;SDS011;33252;48.122;11.538;2023-04-09T05:38:45;24.33;;;13.20;;
47519;SDS011;33252;48.122;11.538;2023-04-09T05:41:11;22.42;;;13.65;;
47519;SDS011;33252;48.122;11.538;2023-04-09T05:43:36;19.45;;;12.32;;
47519;SDS011;33252;48.122;11.538;2023-04-09T05:46:02;24.98;;;14.20;;
47519;SDS011;33252;48.122;11.538;2023-04-09T05:48:28;21.02;;;13.05;;
47519;SDS011;33252;48.122;11.538;2023-04-09T05:50:54;24.63;;;15.80;;
47519;SDS011;33252;48.122;11.538;2023-04-09T05:53:19;21.20;;;13.82;;
47519;SDS011;33252;48.122;11.538;2023-04-09T05:55:46;28.08;;;16.23;;
47519;SDS011;33252;48.122;11.538;2023-04-09T05:58:16;27.90;;;15.57;;
47519;SDS011;33252;48.122;11.538;2023-04-09T06:00:45;24.17;;;14.95;;
47519;SDS011;33252;48.122;11.538;2023-04-09T06:03:11;25.33;;;15.20;;
47519;SDS011;33252;48.122;11.538;2023-04-09T06:05:37;23.20;;;15.48;;
47519;SDS011;33252;48.122;11.538;2023-04-09T06:08:02;23.85;;;15.50;;
47519;SDS011;33252;48.122;11.538;2023-04-09T06:10:30;26.92;;;14.95;;
47519;SDS011;33252;48.122;11.538;2023-04-09T06:12:56;27.17;;;15.48;;
47519;SDS011;33252;48.122;11.538;2023-04-09T06:15:22;25.25;;;15.27;;
47519;SDS011;33252;48.122;11.538;2023-04-09T06:17:47;25.20;;;16.15;;
47519;SDS011;33252;48.122;11.538;2023-04-09T06:20:13;25.65;;;15.40;;
47519;SDS011;33252;48.122;11.538;2023-04-09T06:22:39;22.50;;;14.43;;
47519;SDS011;33252;48.122;11.538;2023-04-09T06:25:05;25.90;;;15.10;;
47519;SDS011;33252;48.122;11.538;2023-04-09T06:27:31;24.25;;;14.90;;
47519;SDS011;33252;48.122;11.538;2023-04-09T06:29:56;24.33;;;15.35;;
47519;SDS011;33252;48.122;11.538;2023-04-09T06:32:22;22.40;;;14.32;;
47519;SDS011;33252;48.122;11.538;2023-04-09T06:34:48;23.35;;;14.35;;
47519;SDS011;33252;48.122;11.538;2023-04-09T06:37:13;24.02;;;14.48;;
47519;SDS011;33252;48.122;11.538;2023-04-09T06:39:39;22.63;;;13.68;;
47519;SDS011;33252;48.122;11.538;2023-04-09T06:42:05;17.48;;;13.23;;
47519;SDS011;33252;48.122;11.538;2023-04-09T06:44:32;22.35;;;13.27;;
47519;SDS011;33252;48.122;11.538;2023-04-09T06:46:58;19.92;;;12.32;;
47519;SDS011;33252;48.122;11.538;2023-04-09T06:49:23;22.50;;;13.23;;
47519;SDS011;33252;48.122;11.538;2023-04-09T06:51:49;18.17;;;11.88;;
47519;SDS011;33252;48.122;11.538;2023-04-09T06:54:17;17.63;;;11.40;;
47519;SDS011;33252;48.122;11.538;2023-04-09T06:56:43;17.33;;;12.05;;
47519;SDS011;33252;48.122;11.538;2023-04-09T06:59:09;16.60;;;11.45;;
47519;SDS011;33252;48.122;11.538;2023-04-09T07:01:35;17.00;;;11.05;;
47519;SDS011;33252;48.122;11.538;2023-04-09T07:04:01;16.33;;;10.88;;
47519;SDS011;33252;48.122;11.538;2023-04-09T07:06:27;18.98;;;11.82;;
47519;SDS011;33252;48.122;11.538;2023-04-09T07:08:53;17.33;;;12.40;;
47519;SDS011;33252;48.122;11.538;2023-04-09T07:11:19;18.00;;;11.95;;
47519;SDS011;33252;48.122;11.538;2023-04-09T07:13:45;19.02;;;11.57;;
47519;SDS011;33252;48.122;11.538;2023-04-09T07:16:11;18.30;;;11.27;;
47519;SDS011;33252;48.122;11.538;2023-04-09T07:18:36;17.52;;;11.90;;
47519;SDS011;33252;48.122;11.538;2023-04-09T07:21:02;15.65;;;10.90;;
47519;SDS011;33252;48.122;11.538;2023-04-09T07:23:28;16.48;;;10.73;;
47519;SDS011;33252;48.122;11.538;2023-04-09T07:25:53;20.27;;;11.05;;
47519;SDS011;33252;48.122;11.538;2023-04-09T07:28:19;17.38;;;11.68;;
47519;SDS011;33252;48.122;11.538;2023-04-09T07:30:47;16.65;;;11.23;;
47519;SDS011;33252;48.122;11.538;2023-04-09T07:33:12;17.80;;;11.55;;
47519;SDS011;33252;48.122;11.538;2023-04-09T07:35:38;19.13;;;12.57;;
47519;SDS011;33252;48.122;11.538;2023-04-09T07:38:03;14.13;;;10.32;;
47519;SDS011;33252;48.122;11.538;2023-04-09T07:40:29;14.32;;;9.20;;
47519;SDS011;33252;48.122;11.538;2023-04-09T07:42:55;13.55;;;9.38;;
47519;SDS011;33252;48.122;11.538;2023-04-09T07:45:22;14.77;;;9.20;;
47519;SDS011;33252;48.122;11.538;2023-04-09T07:47:47;13.73;;;8.70;;
47519;SDS011;33252;48.122;11.538;2023-04-09T07:50:13;13.90;;;8.38;;
47519;SDS011;33252;48.122;11.538;2023-04-09T07:52:40;11.23;;;8.52;;
47519;SDS011;33252;48.122;11.538;2023-04-09T07:55:06;13.55;;;8.27;;
47519;SDS011;33252;48.122;11.538;2023-04-09T07:57:32;13.52;;;8.25;;
47519;SDS011;33252;48.122;11.538;2023-04-09T07:59:58;12.30;;;9.05;;
47519;SDS011;33252;48.122;11.538;2023-04-09T08:02:24;11.85;;;8.10;;
47519;SDS011;33252;48.122;11.538;2023-04-09T08:04:50;12.32;;;8.98;;
47519;SDS011;33252;48.122;11.538;2023-04-09T08:07:16;13.77;;;7.80;;
47519;SDS011;33252;48.122;11.538;2023-04-09T08:09:41;10.77;;;8.32;;
47519;SDS011;33252;48.122;11.538;2023-04-09T08:12:07;13.35;;;8.82;;
47519;SDS011;33252;48.122;11.538;2023-04-09T08:14:33;11.90;;;8.65;;
47519;SDS011;33252;48.122;11.538;2023-04-09T08:16:59;11.45;;;8.13;;
47519;SDS011;33252;48.122;11.538;2023-04-09T08:19:25;13.10;;;9.20;;
47519;SDS011;33252;48.122;11.538;2023-04-09T08:21:51;10.43;;;8.02;;
47519;SDS011;33252;48.122;11.538;2023-04-09T08:24:17;12.23;;;8.68;;
47519;SDS011;33252;48.122;11.538;2023-04-09T08:26:42;12.13;;;8.75;;
47519;SDS011;33252;48.122;11.538;2023-04-09T08:29:10;10.85;;;8.23;;
47519;SDS011;33252;48.122;11.538;2023-04-09T08:31:37;12.90;;;8.90;;
47519;SDS011;33252;48.122;11.538;2023-04-09T08:34:03;13.27;;;9.05;;
47519;SDS011;33252;48.122;11.538;2023-04-09T08:36:29;12.25;;;8.65;;
47519;SDS011;33252;48.122;11.538;2023-04-09T08:38:55;10.43;;;8.50;;
47519;SDS011;33252;48.122;11.538;2023-04-09T08:41:25;11.18;;;9.15;;
47519;SDS011;33252;48.122;11.538;2023-04-09T08:43:55;12.50;;;9.23;;
47519;SDS011;33252;48.122;11.538;2023-04-09T08:46:21;12.38;;;9.10;;
47519;SDS011;33252;48.122;11.538;2023-04-09T08:48:48;10.98;;;8.63;;
47519;SDS011;33252;48.122;11.538;2023-04-09T08:51:18;12.13;;;8.82;;
47519;SDS011;33252;48.122;11.538;2023-04-09T08:53:45;13.63;;;9.52;;
47519;SDS011;33252;48.122;11.538;2023-04-09T08:56:14;9.93;;;7.55;;
47519;SDS011;33252;48.122;11.538;2023-04-09T08:58:44;11.00;;;8.77;;
47519;SDS011;33252;48.122;11.538;2023-04-09T09:01:44;11.38;;;8.48;;
47519;SDS011;33252;48.122;11.538;2023-04-09T09:04:03;11.68;;;8.20;;
47519;SDS011;33252;48.122;11.538;2023-04-09T09:06:31;13.07;;;8.80;;
47519;SDS011;33252;48.122;11.538;2023-04-09T09:11:30;10.77;;;8.52;;
47519;SDS011;33252;48.122;11.538;2023-04-09T09:14:00;10.63;;;8.18;;
47519;SDS011;33252;48.122;11.538;2023-04-09T09:16:40;10.65;;;8.80;;
47519;SDS011;33252;48.122;11.538;2023-04-09T09:19:08;13.18;;;9.25;;
47519;SDS011;33252;48.122;11.538;2023-04-09T09:21:55;13.00;;;9.07;;
47519;SDS011;33252;48.122;11.538;2023-04-09T09:24:22;12.77;;;9.63;;
47519;SDS011;33252;48.122;11.538;2023-04-09T09:26:47;14.05;;;10.57;;
47519;SDS011;33252;48.122;11.538;2023-04-09T09:29:13;14.55;;;10.05;;
47519;SDS011;33252;48.122;11.538;2023-04-09T09:31:46;15.68;;;10.52;;
47519;SDS011;33252;48.122;11.538;2023-04-09T09:34:13;15.88;;;10.82;;
47519;SDS011;33252;48.122;11.538;2023-04-09T09:36:41;15.07;;;10.57;;
47519;SDS011;33252;48.122;11.538;2023-04-09T09:39:07;14.48;;;11.23;;
47519;SDS011;33252;48.122;11.538;2023-04-09T09:41:37;17.85;;;11.73;;
47519;SDS011;33252;48.122;11.538;2023-04-09T09:44:04;17.00;;;10.88;;
47519;SDS011;33252;48.122;11.538;2023-04-09T09:46:37;16.50;;;11.90;;
47519;SDS011;33252;48.122;11.538;2023-04-09T09:49:05;17.13;;;12.10;;
47519;SDS011;33252;48.122;11.538;2023-04-09T09:51:32;16.63;;;12.07;;
47519;SDS011;33252;48.122;11.538;2023-04-09T09:54:01;16.98;;;12.50;;
47519;SDS011;33252;48.122;11.538;2023-04-09T09:56:30;16.63;;;11.45;;
47519;SDS011;33252;48.122;11.538;2023-04-09T09:59:00;16.58;;;11.35;;
47519;SDS011;33252;48.122;11.538;2023-04-09T10:01:50;15.65;;;10.75;;
47519;SDS011;33252;48.122;11.538;2023-04-09T10:04:24;16.55;;;10.27;;
47519;SDS011;33252;48.122;11.538;2023-04-09T10:06:53;15.50;;;10.75;;
47519;SDS011;33252;48.122;11.538;2023-04-09T10:09:20;13.68;;;10.93;;
47519;SDS011;33252;48.122;11.538;2023-04-09T10:11:47;15.65;;;10.38;;
47519;SDS011;33252;48.122;11.538;2023-04-09T10:14:13;13.10;;;10.15;;
47519;SDS011;33252;48.122;11.538;2023-04-09T10:16:41;15.30;;;11.25;;
47519;SDS011;33252;48.122;11.538;2023-04-09T10:19:07;14.27;;;10.13;;
47519;SDS011;33252;48.122;11.538;2023-04-09T10:21:55;16.05;;;11.50;;
47519;SDS011;33252;48.122;11.538;2023-04-09T10:24:28;15.52;;;11.15;;
47519;SDS011;33252;48.122;11.538;2023-04-09T10:26:56;14.85;;;10.82;;
47519;SDS011;33252;48.122;11.538;2023-04-09T10:29:33;15.82;;;10.85;;
47519;SDS011;33252;48.122;11.538;2023-04-09T10:32:08;15.05;;;10.82;;
47519;SDS011;33252;48.122;11.538;2023-04-09T10:34:34;15.75;;;10.55;;
47519;SDS011;33252;48.122;11.538;2023-04-09T10:37:02;15.45;;;10.52;;
47519;SDS011;33252;48.122;11.538;2023-04-09T10:39:31;14.88;;;11.20;;
47519;SDS011;33252;48.122;11.538;2023-04-09T10:41:58;12.80;;;9.82;;
47519;SDS011;33252;48.122;11.538;2023-04-09T10:44:26;14.68;;;10.38;;
47519;SDS011;33252;48.122;11.538;2023-04-09T10:46:55;17.55;;;11.35;;
47519;SDS011;33252;48.122;11.538;2023-04-09T10:49:22;14.07;;;9.88;;
47519;SDS011;33252;48.122;11.538;2023-04-09T10:59:34;14.90;;;10.57;;
47519;SDS011;33252;48.122;11.538;2023-04-09T11:02:01;15.25;;;11.15;;
47519;SDS011;33252;48.122;11.538;2023-04-09T11:07:17;15.95;;;10.98;;
47519;SDS011;33252;48.122;11.538;2023-04-09T11:09:47;13.93;;;9.98;;
47519;SDS011;33252;48.122;11.538;2023-04-09T11:12:13;17.17;;;11.95;;
47519;SDS011;33252;48.122;11.538;2023-04-09T11:14:38;15.85;;;11.98;;
47519;SDS011;33252;48.122;11.538;2023-04-09T11:17:04;14.70;;;10.63;;
47519;SDS011;33252;48.122;11.538;2023-04-09T11:19:32;14.52;;;11.88;;
47519;SDS011;33252;48.122;11.538;2023-04-09T11:21:58;15.15;;;11.38;;
47519;SDS011;33252;48.122;11.538;2023-04-09T11:24:24;15.68;;;11.40;;
47519;SDS011;33252;48.122;11.538;2023-04-09T11:26:49;18.40;;;13.18;;
47519;SDS011;33252;48.122;11.538;2023-04-09T11:29:15;17.02;;;13.00;;
47519;SDS011;33252;48.122;11.538;2023-04-09T11:31:44;14.57;;;11.48;;
47519;SDS011;33252;48.122;11.538;2023-04-09T11:34:10;16.02;;;10.88;;
47519;SDS011;33252;48.122;11.538;2023-04-09T11:36:39;18.02;;;11.93;;
47519;SDS011;33252;48.122;11.538;2023-04-09T11:39:05;15.73;;;11.57;;
47519;SDS011;33252;48.122;11.538;2023-04-09T11:41:34;18.83;;;12.25;;
47519;SDS011;33252;48.122;11.538;2023-04-09T11:44:03;17.30;;;12.40;;
47519;SDS011;33252;48.122;11.538;2023-04-09T11:46:31;14.07;;;10.20;;
47519;SDS011;33252;48.122;11.538;2023-04-09T11:48:57;14.80;;;10.10;;
47519;SDS011;33252;48.122;11.538;2023-04-09T11:51:23;14.80;;;10.82;;
47519;SDS011;33252;48.122;11.538;2023-04-09T11:53:51;15.35;;;11.38;;
47519;SDS011;33252;48.122;11.538;2023-04-09T11:56:16;14.65;;;10.73;;
47519;SDS011;33252;48.122;11.538;2023-04-09T11:58:45;19.05;;;13.63;;
47519;SDS011;33252;48.122;11.538;2023-04-09T12:01:12;18.33;;;12.63;;
47519;SDS011;33252;48.122;11.538;2023-04-09T12:03:39;17.38;;;12.45;;
47519;SDS011;33252;48.122;11.538;2023-04-09T12:06:06;17.60;;;13.13;;
47519;SDS011;33252;48.122;11.538;2023-04-09T12:08:33;17.83;;;13.18;;
47519;SDS011;33252;48.122;11.538;2023-04-09T12:11:06;17.75;;;12.15;;
47519;SDS011;33252;48.122;11.538;2023-04-09T12:13:40;17.40;;;11.95;;
47519;SDS011;33252;48.122;11.538;2023-04-09T12:16:07;16.08;;;11.35;;
47519;SDS011;33252;48.122;11.538;2023-04-09T12:18:35;16.75;;;11.52;;
47519;SDS011;33252;48.122;11.538;2023-04-09T12:21:02;14.73;;;11.68;;
47519;SDS011;33252;48.122;11.538;2023-04-09T12:23:28;17.00;;;11.38;;
47519;SDS011;33252;48.122;11.538;2023-04-09T12:25:55;16.50;;;12.48;;
47519;SDS011;33252;48.122;11.538;2023-04-09T12:28:24;17.58;;;12.35;;
47519;SDS011;33252;48.122;11.538;2023-04-09T12:30:50;18.25;;;12.50;;
47519;SDS011;33252;48.122;11.538;2023-04-09T12:33:16;16.02;;;11.48;;
47519;SDS011;33252;48.122;11.538;2023-04-09T12:35:42;15.90;;;11.57;;
47519;SDS011;33252;48.122;11.538;2023-04-09T12:38:08;16.95;;;12.70;;
47519;SDS011;33252;48.122;11.538;2023-04-09T12:40:34;14.88;;;11.55;;
47519;SDS011;33252;48.122;11.538;2023-04-09T12:43:01;15.38;;;11.45;;
47519;SDS011;33252;48.122;11.538;2023-04-09T12:45:28;13.80;;;10.35;;
47519;SDS011;33252;48.122;11.538;2023-04-09T12:47:54;15.45;;;11.60;;
47519;SDS011;33252;48.122;11.538;2023-04-09T12:50:20;14.85;;;10.68;;
47519;SDS011;33252;48.122;11.538;2023-04-09T12:52:46;14.25;;;10.77;;
47519;SDS011;33252;48.122;11.538;2023-04-09T12:55:12;13.80;;;9.57;;
47519;SDS011;33252;48.122;11.538;2023-04-09T12:57:41;13.10;;;9.68;;
47519;SDS011;33252;48.122;11.538;2023-04-09T13:00:08;16.75;;;10.68;;
47519;SDS011;33252;48.122;11.538;2023-04-09T13:02:34;14.32;;;10.95;;
47519;SDS011;33252;48.122;11.538;2023-04-09T13:05:00;12.27;;;9.63;;
47519;SDS011;33252;48.122;11.538;2023-04-09T13:07:27;14.30;;;10.35;;
47519;SDS011;33252;48.122;11.538;2023-04-09T13:09:54;15.40;;;11.27;;
47519;SDS011;33252;48.122;11.538;2023-04-09T13:12:21;15.35;;;10.20;;
47519;SDS011;33252;48.122;11.538;2023-04-09T13:14:47;13.45;;;10.20;;
47519;SDS011;33252;48.122;11.538;2023-04-09T13:17:15;13.25;;;10.23;;
47519;SDS011;33252;48.122;11.538;2023-04-09T13:19:41;12.48;;;9.60;;
47519;SDS011;33252;48.122;11.538;2023-04-09T13:22:06;13.10;;;9.57;;
47519;SDS011;33252;48.122;11.538;2023-04-09T13:24:36;12.93;;;9.32;;
47519;SDS011;33252;48.122;11.538;2023-04-09T13:27:03;15.63;;;10.20;;
47519;SDS011;33252;48.122;11.538;2023-04-09T13:29:30;12.77;;;8.90;;
47519;SDS011;33252;48.122;11.538;2023-04-09T13:31:56;14.50;;;10.60;;
47519;SDS011;33252;48.122;11.538;2023-04-09T13:34:22;14.45;;;10.60;;
47519;SDS011;33252;48.122;11.538;2023-04-09T13:36:48;12.43;;;9.73;;
47519;SDS011;33252;48.122;11.538;2023-04-09T13:39:15;13.90;;;10.82;;
47519;SDS011;33252;48.122;11.538;2023-04-09T13:41:40;14.18;;;11.15;;
47519;SDS011;33252;48.122;11.538;2023-04-09T13:44:06;15.68;;;10.68;;
47519;SDS011;33252;48.122;11.538;2023-04-09T13:46:32;14.60;;;9.57;;
47519;SDS011;33252;48.122;11.538;2023-04-09T13:48:58;13.13;;;9.48;;
47519;SDS011;33252;48.122;11.538;2023-04-09T13:51:23;12.65;;;9.23;;
47519;SDS011;33252;48.122;11.538;2023-04-09T13:53:51;15.13;;;10.25;;
47519;SDS011;33252;48.122;11.538;2023-04-09T13:56:17;13.73;;;10.45;;
47519;SDS011;33252;48.122;11.538;2023-04-09T13:58:43;13.55;;;10.20;;
47519;SDS011;33252;48.122;11.538;2023-04-09T14:01:09;13.27;;;10.35;;
47519;SDS011;33252;48.122;11.538;2023-04-09T14:03:35;15.82;;;10.35;;
47519;SDS011;33252;48.122;11.538;2023-04-09T14:06:04;11.80;;;9.55;;
47519;SDS011;33252;48.122;11.538;2023-04-09T14:08:33;12.75;;;10.13;;
47519;SDS011;33252;48.122;11.538;2023-04-09T14:10:59;13.13;;;9.50;;
47519;SDS011;33252;48.122;11.538;2023-04-09T14:13:25;13.07;;;10.32;;
47519;SDS011;33252;48.122;11.538;2023-04-09T14:15:51;12.30;;;9.25;;
47519;SDS011;33252;48.122;11.538;2023-04-09T14:18:17;11.85;;;10.18;;
47519;SDS011;33252;48.122;11.538;2023-04-09T14:20:42;10.10;;;8.40;;
47519;SDS011;33252;48.122;11.538;2023-04-09T14:23:08;8.85;;;7.95;;
47519;SDS011;33252;48.122;11.538;2023-04-09T14:25:34;9.15;;;8.20;;
47519;SDS011;33252;48.122;11.538;2023-04-09T14:28:01;8.18;;;7.38;;
47519;SDS011;33252;48.122;11.538;2023-04-09T14:30:27;9.45;;;8.30;;
47519;SDS011;33252;48.122;11.538;2023-04-09T14:32:52;8.30;;;7.50;;
47519;SDS011;33252;48.122;11.538;2023-04-09T14:35:18;8.70;;;7.80;;
47519;SDS011;33252;48.122;11.538;2023-04-09T14:37:44;8.57;;;7.68;;
47519;SDS011;33252;48.122;11.538;2023-04-09T14:40:11;8.32;;;7.55;;